sensor_id;sensor_type;location;lat;lon;timestamp;pressure;altitude;pressure_sealevel;temperature;humidity
36798;BME280;22748;8.426;99.512;2023-08-06T00:01:53;100925.06;;;29.89;60.37
36798;BME280;22748;8.426;99.512;2023-08-06T00:04:26;100927.78;;;29.76;60.53
36798;BME280;22748;8.426;99.512;2023-08-06T00:06:57;100936.28;;;29.86;60.62
36798;BME280;22748;8.426;99.512;2023-08-06T00:09:28;100940.00;;;29.85;60.40
36798;BME280;22748;8.426;99.512;2023-08-06T00:12:00;100933.75;;;29.98;60.11
36798;BME280;22748;8.426;99.512;2023-08-06T00:14:34;100935.63;;;30.04;60.10
36798;BME280;22748;8.426;99.512;2023-08-06T00:17:04;100935.81;;;30.02;60.66
36798;BME280;22748;8.426;99.512;2023-08-06T00:19:36;100939.75;;;30.06;60.70
36798;BME280;22748;8.426;99.512;2023-08-06T00:22:06;100946.59;;;30.02;60.69
36798;BME280;22748;8.426;99.512;2023-08-06T00:24:37;100947.84;;;30.06;60.73
36798;BME280;22748;8.426;99.512;2023-08-06T00:27:08;100957.38;;;30.02;60.72
36798;BME280;22748;8.426;99.512;2023-08-06T00:29:42;100961.13;;;29.94;60.99
36798;BME280;22748;8.426;99.512;2023-08-06T00:32:20;100963.81;;;30.01;60.83
36798;BME280;22748;8.426;99.512;2023-08-06T00:34:58;100967.75;;;30.05;60.96
36798;BME280;22748;8.426;99.512;2023-08-06T00:37:29;100971.25;;;30.06;61.36
36798;BME280;22748;8.426;99.512;2023-08-06T00:40:00;100967.94;;;30.10;61.14
36798;BME280;22748;8.426;99.512;2023-08-06T00:42:29;100979.94;;;30.14;60.66
36798;BME280;22748;8.426;99.512;2023-08-06T00:44:59;100983.44;;;30.22;60.86
36798;BME280;22748;8.426;99.512;2023-08-06T00:47:30;100986.34;;;30.27;60.84
36798;BME280;22748;8.426;99.512;2023-08-06T00:50:03;100979.97;;;30.28;60.66
36798;BME280;22748;8.426;99.512;2023-08-06T00:52:34;100984.69;;;30.26;60.93
36798;BME280;22748;8.426;99.512;2023-08-06T00:55:05;100983.88;;;30.32;61.06
36798;BME280;22748;8.426;99.512;2023-08-06T00:57:35;100994.25;;;30.35;60.71
36798;BME280;22748;8.426;99.512;2023-08-06T01:00:08;100992.16;;;30.37;60.87
36798;BME280;22748;8.426;99.512;2023-08-06T01:02:39;100997.97;;;30.34;60.56
36798;BME280;22748;8.426;99.512;2023-08-06T01:05:12;100998.38;;;30.31;61.27
36798;BME280;22748;8.426;99.512;2023-08-06T01:07:51;100989.28;;;30.32;60.86
36798;BME280;22748;8.426;99.512;2023-08-06T01:10:34;100995.69;;;30.38;60.89
36798;BME280;22748;8.426;99.512;2023-08-06T01:13:18;100992.38;;;30.42;60.98
36798;BME280;22748;8.426;99.512;2023-08-06T01:15:56;100989.88;;;30.41;60.96
36798;BME280;22748;8.426;99.512;2023-08-06T01:18:29;101004.16;;;30.48;61.19
36798;BME280;22748;8.426;99.512;2023-08-06T01:21:01;101006.22;;;30.52;61.24
36798;BME280;22748;8.426;99.512;2023-08-06T01:23:32;101002.06;;;30.57;60.54
36798;BME280;22748;8.426;99.512;2023-08-06T01:26:08;101009.75;;;30.60;60.11
36798;BME280;22748;8.426;99.512;2023-08-06T01:28:47;101002.88;;;30.57;60.47
36798;BME280;22748;8.426;99.512;2023-08-06T01:31:22;101000.81;;;30.59;60.19
36798;BME280;22748;8.426;99.512;2023-08-06T01:33:53;101001.22;;;30.63;60.46
36798;BME280;22748;8.426;99.512;2023-08-06T01:36:29;101008.69;;;30.67;61.06
36798;BME280;22748;8.426;99.512;2023-08-06T01:39:01;101007.84;;;30.73;61.13
36798;BME280;22748;8.426;99.512;2023-08-06T01:41:33;101013.63;;;30.77;61.11
36798;BME280;22748;8.426;99.512;2023-08-06T01:44:03;101016.06;;;30.85;61.05
36798;BME280;22748;8.426;99.512;2023-08-06T01:46:33;101015.25;;;30.91;60.39
36798;BME280;22748;8.426;99.512;2023-08-06T01:49:04;101019.81;;;30.98;60.43
36798;BME280;22748;8.426;99.512;2023-08-06T01:51:35;101016.88;;;31.06;60.42
36798;BME280;22748;8.426;99.512;2023-08-06T01:54:07;101019.94;;;31.09;60.15
36798;BME280;22748;8.426;99.512;2023-08-06T01:56:37;101009.72;;;31.18;59.96
36798;BME280;22748;8.426;99.512;2023-08-06T01:59:09;101010.97;;;31.22;59.92
36798;BME280;22748;8.426;99.512;2023-08-06T02:01:39;101013.03;;;31.20;59.70
36798;BME280;22748;8.426;99.512;2023-08-06T02:04:10;101009.72;;;31.18;59.52
36798;BME280;22748;8.426;99.512;2023-08-06T02:06:42;101003.09;;;31.14;59.33
36798;BME280;22748;8.426;99.512;2023-08-06T02:09:14;101005.19;;;31.19;59.60
36798;BME280;22748;8.426;99.512;2023-08-06T02:11:49;101003.09;;;31.21;59.13
36798;BME280;22748;8.426;99.512;2023-08-06T02:14:21;101004.34;;;31.18;59.13
36798;BME280;22748;8.426;99.512;2023-08-06T02:16:51;101010.19;;;31.15;59.29
36798;BME280;22748;8.426;99.512;2023-08-06T02:19:23;101003.97;;;31.14;59.86
36798;BME280;22748;8.426;99.512;2023-08-06T02:21:55;100998.56;;;31.14;59.58
36798;BME280;22748;8.426;99.512;2023-08-06T02:24:27;100998.13;;;31.17;59.81
36798;BME280;22748;8.426;99.512;2023-08-06T02:27:03;100991.25;;;31.22;59.68
36798;BME280;22748;8.426;99.512;2023-08-06T02:29:34;100992.28;;;31.27;59.51
36798;BME280;22748;8.426;99.512;2023-08-06T02:32:05;100986.22;;;31.32;59.63
36798;BME280;22748;8.426;99.512;2023-08-06T02:34:35;100984.34;;;31.32;59.53
36798;BME280;22748;8.426;99.512;2023-08-06T02:37:21;100978.50;;;31.35;59.37
36798;BME280;22748;8.426;99.512;2023-08-06T02:39:53;100977.47;;;31.36;59.43
36798;BME280;22748;8.426;99.512;2023-08-06T02:42:24;100967.28;;;31.39;59.14
36798;BME280;22748;8.426;99.512;2023-08-06T02:44:55;100957.75;;;31.43;58.73
36798;BME280;22748;8.426;99.512;2023-08-06T02:47:27;100957.09;;;31.47;58.67
36798;BME280;22748;8.426;99.512;2023-08-06T02:49:58;100951.03;;;31.52;58.47
36798;BME280;22748;8.426;99.512;2023-08-06T02:52:32;100949.97;;;31.53;59.05
36798;BME280;22748;8.426;99.512;2023-08-06T02:55:03;100953.50;;;31.53;59.23
36798;BME280;22748;8.426;99.512;2023-08-06T02:57:34;100943.09;;;31.57;58.94
36798;BME280;22748;8.426;99.512;2023-08-06T03:00:04;100950.31;;;31.63;58.43
36798;BME280;22748;8.426;99.512;2023-08-06T03:02:35;100950.47;;;31.68;58.52
36798;BME280;22748;8.426;99.512;2023-08-06T03:05:06;100937.16;;;31.73;58.54
36798;BME280;22748;8.426;99.512;2023-08-06T03:07:39;100939.38;;;31.76;58.27
36798;BME280;22748;8.426;99.512;2023-08-06T03:10:10;100942.53;;;31.73;58.23
36798;BME280;22748;8.426;99.512;2023-08-06T03:12:40;100940.44;;;31.75;58.34
36798;BME280;22748;8.426;99.512;2023-08-06T03:15:12;100938.72;;;31.81;58.49
36798;BME280;22748;8.426;99.512;2023-08-06T03:17:42;100941.22;;;31.83;58.02
36798;BME280;22748;8.426;99.512;2023-08-06T03:20:12;100933.72;;;31.85;57.96
36798;BME280;22748;8.426;99.512;2023-08-06T03:22:44;100927.84;;;31.88;58.46
36798;BME280;22748;8.426;99.512;2023-08-06T03:25:19;100936.34;;;31.91;58.44
36798;BME280;22748;8.426;99.512;2023-08-06T03:27:50;100934.47;;;31.92;58.14
36798;BME280;22748;8.426;99.512;2023-08-06T03:30:20;100931.56;;;31.93;58.22
36798;BME280;22748;8.426;99.512;2023-08-06T03:32:51;100938.22;;;31.91;58.07
36798;BME280;22748;8.426;99.512;2023-08-06T03:35:21;100933.44;;;31.93;57.67
36798;BME280;22748;8.426;99.512;2023-08-06T03:37:54;100929.66;;;31.94;57.60
36798;BME280;22748;8.426;99.512;2023-08-06T03:40:26;100927.56;;;31.96;57.52
36798;BME280;22748;8.426;99.512;2023-08-06T03:42:57;100916.59;;;31.97;57.39
36798;BME280;22748;8.426;99.512;2023-08-06T03:45:27;100916.53;;;32.04;57.27
36798;BME280;22748;8.426;99.512;2023-08-06T03:47:57;100916.31;;;32.06;57.36
36798;BME280;22748;8.426;99.512;2023-08-06T03:50:28;100907.94;;;32.07;57.27
36798;BME280;22748;8.426;99.512;2023-08-06T03:53:00;100902.34;;;32.09;57.34
36798;BME280;22748;8.426;99.512;2023-08-06T03:55:30;100901.66;;;32.13;56.99
36798;BME280;22748;8.426;99.512;2023-08-06T03:58:01;100903.94;;;32.16;56.79
36798;BME280;22748;8.426;99.512;2023-08-06T04:00:32;100895.34;;;32.20;56.47
36798;BME280;22748;8.426;99.512;2023-08-06T04:03:03;100889.75;;;32.21;56.66
36798;BME280;22748;8.426;99.512;2023-08-06T04:05:34;100893.03;;;32.23;56.66
36798;BME280;22748;8.426;99.512;2023-08-06T04:08:06;100892.19;;;32.23;56.40
36798;BME280;22748;8.426;99.512;2023-08-06T04:10:39;100894.06;;;32.22;56.59
36798;BME280;22748;8.426;99.512;2023-08-06T04:13:10;100890.09;;;32.25;56.31
36798;BME280;22748;8.426;99.512;2023-08-06T04:15:39;100887.78;;;32.28;56.00
36798;BME280;22748;8.426;99.512;2023-08-06T04:18:10;100886.28;;;32.32;55.77
36798;BME280;22748;8.426;99.512;2023-08-06T04:20:44;100882.50;;;32.33;56.01
36798;BME280;22748;8.426;99.512;2023-08-06T04:23:18;100882.88;;;32.37;56.10
36798;BME280;22748;8.426;99.512;2023-08-06T04:25:48;100879.72;;;32.40;56.21
36798;BME280;22748;8.426;99.512;2023-08-06T04:28:20;100864.69;;;32.44;55.77
36798;BME280;22748;8.426;99.512;2023-08-06T04:30:50;100859.47;;;32.49;55.62
36798;BME280;22748;8.426;99.512;2023-08-06T04:33:21;100863.97;;;32.55;55.39
36798;BME280;22748;8.426;99.512;2023-08-06T04:35:55;100863.53;;;32.58;55.29
36798;BME280;22748;8.426;99.512;2023-08-06T04:38:28;100861.63;;;32.59;55.35
36798;BME280;22748;8.426;99.512;2023-08-06T04:41:02;100850.13;;;32.64;55.46
36798;BME280;22748;8.426;99.512;2023-08-06T04:43:37;100843.81;;;32.70;55.68
36798;BME280;22748;8.426;99.512;2023-08-06T04:46:08;100852.41;;;32.78;54.88
36798;BME280;22748;8.426;99.512;2023-08-06T04:48:37;100849.00;;;32.83;55.20
36798;BME280;22748;8.426;99.512;2023-08-06T04:51:10;100846.91;;;32.85;55.24
36798;BME280;22748;8.426;99.512;2023-08-06T04:53:44;100836.91;;;32.86;54.75
36798;BME280;22748;8.426;99.512;2023-08-06T04:56:14;100835.66;;;32.88;54.87
36798;BME280;22748;8.426;99.512;2023-08-06T04:58:46;100831.88;;;32.89;54.41
36798;BME280;22748;8.426;99.512;2023-08-06T05:01:18;100818.94;;;32.91;54.59
36798;BME280;22748;8.426;99.512;2023-08-06T05:03:49;100816.34;;;32.96;54.78
36798;BME280;22748;8.426;99.512;2023-08-06T05:06:20;100811.09;;;33.02;54.52
36798;BME280;22748;8.426;99.512;2023-08-06T05:08:53;100811.22;;;33.07;54.64
36798;BME280;22748;8.426;99.512;2023-08-06T05:11:24;100809.34;;;33.07;54.70
36798;BME280;22748;8.426;99.512;2023-08-06T05:13:54;100814.53;;;33.09;54.44
36798;BME280;22748;8.426;99.512;2023-08-06T05:16:25;100802.03;;;33.08;54.31
36798;BME280;22748;8.426;99.512;2023-08-06T05:18:56;100795.00;;;33.07;54.02
36798;BME280;22748;8.426;99.512;2023-08-06T05:21:27;100797.81;;;33.12;53.61
36798;BME280;22748;8.426;99.512;2023-08-06T05:24:02;100787.25;;;33.22;53.54
36798;BME280;22748;8.426;99.512;2023-08-06T05:26:33;100779.72;;;33.24;53.65
36798;BME280;22748;8.426;99.512;2023-08-06T05:29:06;100776.41;;;33.22;53.33
36798;BME280;22748;8.426;99.512;2023-08-06T05:31:38;100774.28;;;33.24;53.52
36798;BME280;22748;8.426;99.512;2023-08-06T05:34:11;100766.19;;;33.24;53.64
36798;BME280;22748;8.426;99.512;2023-08-06T05:36:41;100748.41;;;33.28;53.09
36798;BME280;22748;8.426;99.512;2023-08-06T05:39:13;100751.72;;;33.30;53.24
36798;BME280;22748;8.426;99.512;2023-08-06T05:41:44;100746.28;;;33.30;53.22
36798;BME280;22748;8.426;99.512;2023-08-06T05:44:14;100740.41;;;33.33;53.23
36798;BME280;22748;8.426;99.512;2023-08-06T05:46:47;100743.69;;;33.35;53.37
36798;BME280;22748;8.426;99.512;2023-08-06T05:49:17;100745.34;;;33.36;53.17
36798;BME280;22748;8.426;99.512;2023-08-06T05:51:49;100734.53;;;33.36;52.39
36798;BME280;22748;8.426;99.512;2023-08-06T05:54:22;100728.03;;;33.37;52.33
36798;BME280;22748;8.426;99.512;2023-08-06T05:56:52;100723.22;;;33.39;52.24
36798;BME280;22748;8.426;99.512;2023-08-06T05:59:22;100727.09;;;33.44;52.25
36798;BME280;22748;8.426;99.512;2023-08-06T06:01:53;100711.44;;;33.46;52.52
36798;BME280;22748;8.426;99.512;2023-08-06T06:04:24;100702.81;;;33.49;52.29
36798;BME280;22748;8.426;99.512;2023-08-06T06:06:55;100708.81;;;33.51;52.45
36798;BME280;22748;8.426;99.512;2023-08-06T06:09:31;100702.94;;;33.54;52.18
36798;BME280;22748;8.426;99.512;2023-08-06T06:12:01;100696.22;;;33.56;51.93
36798;BME280;22748;8.426;99.512;2023-08-06T06:14:33;100692.25;;;33.59;51.18
36798;BME280;22748;8.426;99.512;2023-08-06T06:17:17;100683.16;;;33.65;50.90
36798;BME280;22748;8.426;99.512;2023-08-06T06:19:47;100681.03;;;33.67;51.24
36798;BME280;22748;8.426;99.512;2023-08-06T06:22:17;100683.63;;;33.62;51.29
36798;BME280;22748;8.426;99.512;2023-08-06T06:24:51;100682.81;;;33.62;51.29
36798;BME280;22748;8.426;99.512;2023-08-06T06:27:21;100670.56;;;33.59;51.55
36798;BME280;22748;8.426;99.512;2023-08-06T06:29:52;100668.34;;;33.56;51.17
36798;BME280;22748;8.426;99.512;2023-08-06T06:32:24;100674.91;;;33.60;50.70
36798;BME280;22748;8.426;99.512;2023-08-06T06:34:56;100665.34;;;33.57;50.57
36798;BME280;22748;8.426;99.512;2023-08-06T06:37:27;100670.34;;;33.60;50.77
36798;BME280;22748;8.426;99.512;2023-08-06T06:40:00;100661.97;;;33.62;50.49
36798;BME280;22748;8.426;99.512;2023-08-06T06:42:30;100666.78;;;33.60;50.45
36798;BME280;22748;8.426;99.512;2023-08-06T06:45:01;100663.03;;;33.61;50.32
36798;BME280;22748;8.426;99.512;2023-08-06T06:47:31;100658.22;;;33.63;49.58
36798;BME280;22748;8.426;99.512;2023-08-06T06:50:01;100658.22;;;33.63;50.37
36798;BME280;22748;8.426;99.512;2023-08-06T06:52:32;100644.53;;;33.58;50.30
36798;BME280;22748;8.426;99.512;2023-08-06T06:55:07;100642.78;;;33.64;50.17
36798;BME280;22748;8.426;99.512;2023-08-06T06:57:37;100639.34;;;33.68;49.93
36798;BME280;22748;8.426;99.512;2023-08-06T07:00:09;100640.50;;;33.72;49.96
36798;BME280;22748;8.426;99.512;2023-08-06T07:02:40;100641.09;;;33.74;50.13
36798;BME280;22748;8.426;99.512;2023-08-06T07:05:10;100634.63;;;33.75;50.42
36798;BME280;22748;8.426;99.512;2023-08-06T07:07:40;100636.63;;;33.68;50.69
36798;BME280;22748;8.426;99.512;2023-08-06T07:10:14;100622.63;;;33.71;50.51
36798;BME280;22748;8.426;99.512;2023-08-06T07:12:44;100625.91;;;33.73;50.67
36798;BME280;22748;8.426;99.512;2023-08-06T07:15:16;100625.31;;;33.71;50.84
36798;BME280;22748;8.426;99.512;2023-08-06T07:17:47;100630.25;;;33.74;50.99
36798;BME280;22748;8.426;99.512;2023-08-06T07:20:17;100633.97;;;33.85;51.17
36798;BME280;22748;8.426;99.512;2023-08-06T07:22:53;100628.97;;;33.94;51.08
36798;BME280;22748;8.426;99.512;2023-08-06T07:25:26;100623.31;;;33.95;50.64
36798;BME280;22748;8.426;99.512;2023-08-06T07:28:12;100622.81;;;33.98;50.77
36798;BME280;22748;8.426;99.512;2023-08-06T07:30:44;100619.88;;;34.00;51.40
36798;BME280;22748;8.426;99.512;2023-08-06T07:33:16;100617.75;;;34.02;52.28
36798;BME280;22748;8.426;99.512;2023-08-06T07:35:47;100606.41;;;34.05;52.52
36798;BME280;22748;8.426;99.512;2023-08-06T07:38:18;100607.00;;;34.07;51.73
36798;BME280;22748;8.426;99.512;2023-08-06T07:40:50;100601.09;;;34.10;51.56
36798;BME280;22748;8.426;99.512;2023-08-06T07:43:20;100593.31;;;34.14;50.79
36798;BME280;22748;8.426;99.512;2023-08-06T07:45:50;100596.13;;;34.19;51.10
36798;BME280;22748;8.426;99.512;2023-08-06T07:48:20;100597.97;;;34.18;51.24
36798;BME280;22748;8.426;99.512;2023-08-06T07:50:53;100585.81;;;34.21;50.54
36798;BME280;22748;8.426;99.512;2023-08-06T07:53:24;100580.97;;;34.23;50.69
36798;BME280;22748;8.426;99.512;2023-08-06T07:55:59;100582.97;;;34.28;50.62
36798;BME280;22748;8.426;99.512;2023-08-06T07:58:32;100586.22;;;34.30;50.32
36798;BME280;22748;8.426;99.512;2023-08-06T08:01:03;100577.63;;;34.33;49.50
36798;BME280;22748;8.426;99.512;2023-08-06T08:03:35;100564.41;;;34.36;49.16
36798;BME280;22748;8.426;99.512;2023-08-06T08:06:05;100557.16;;;34.42;48.53
36798;BME280;22748;8.426;99.512;2023-08-06T08:08:36;100564.81;;;34.45;48.27
36798;BME280;22748;8.426;99.512;2023-08-06T08:11:09;100558.81;;;34.43;48.34
36798;BME280;22748;8.426;99.512;2023-08-06T08:13:39;100553.13;;;34.45;47.62
36798;BME280;22748;8.426;99.512;2023-08-06T08:16:09;100547.44;;;34.46;47.66
36798;BME280;22748;8.426;99.512;2023-08-06T08:18:40;100554.50;;;34.47;47.37
36798;BME280;22748;8.426;99.512;2023-08-06T08:21:10;100552.94;;;34.51;47.08
36798;BME280;22748;8.426;99.512;2023-08-06T08:23:43;100542.19;;;34.56;46.35
36798;BME280;22748;8.426;99.512;2023-08-06T08:26:16;100538.97;;;34.59;46.01
36798;BME280;22748;8.426;99.512;2023-08-06T08:28:47;100542.84;;;34.64;46.05
36798;BME280;22748;8.426;99.512;2023-08-06T08:31:18;100524.19;;;34.67;45.80
36798;BME280;22748;8.426;99.512;2023-08-06T08:33:49;100520.16;;;34.70;45.59
36798;BME280;22748;8.426;99.512;2023-08-06T08:36:21;100517.19;;;34.71;45.96
36798;BME280;22748;8.426;99.512;2023-08-06T08:38:53;100523.44;;;34.72;45.43
36798;BME280;22748;8.426;99.512;2023-08-06T08:41:28;100526.16;;;34.72;45.78
36798;BME280;22748;8.426;99.512;2023-08-06T08:43:59;100529.09;;;34.70;45.44
36798;BME280;22748;8.426;99.512;2023-08-06T08:46:33;100530.75;;;34.71;45.84
36798;BME280;22748;8.426;99.512;2023-08-06T08:49:05;100516.88;;;34.68;45.50
36798;BME280;22748;8.426;99.512;2023-08-06T08:51:37;100527.72;;;34.68;45.34
36798;BME280;22748;8.426;99.512;2023-08-06T08:54:09;100513.06;;;34.69;45.45
36798;BME280;22748;8.426;99.512;2023-08-06T08:56:45;100508.22;;;34.71;45.45
36798;BME280;22748;8.426;99.512;2023-08-06T08:59:16;100519.16;;;34.76;45.62
36798;BME280;22748;8.426;99.512;2023-08-06T09:01:45;100518.13;;;34.82;46.03
36798;BME280;22748;8.426;99.512;2023-08-06T09:04:18;100506.78;;;34.85;46.53
36798;BME280;22748;8.426;99.512;2023-08-06T09:06:54;100515.78;;;34.91;46.88
36798;BME280;22748;8.426;99.512;2023-08-06T09:09:28;100507.72;;;34.96;46.96
36798;BME280;22748;8.426;99.512;2023-08-06T09:12:16;100516.72;;;35.01;47.03
36798;BME280;22748;8.426;99.512;2023-08-06T09:14:46;100528.72;;;35.06;46.93
36798;BME280;22748;8.426;99.512;2023-08-06T09:17:17;100526.28;;;35.04;46.83
36798;BME280;22748;8.426;99.512;2023-08-06T09:19:50;100528.72;;;35.06;46.45
36798;BME280;22748;8.426;99.512;2023-08-06T09:22:20;100530.84;;;35.03;46.55
36798;BME280;22748;8.426;99.512;2023-08-06T09:24:51;100530.84;;;35.03;46.59
36798;BME280;22748;8.426;99.512;2023-08-06T09:27:24;100530.84;;;35.03;46.33
36798;BME280;22748;8.426;99.512;2023-08-06T09:29:57;100533.09;;;35.07;46.14
36798;BME280;22748;8.426;99.512;2023-08-06T09:32:29;100530.84;;;35.03;46.27
36798;BME280;22748;8.426;99.512;2023-08-06T09:35:18;100539.00;;;35.03;46.10
36798;BME280;22748;8.426;99.512;2023-08-06T09:37:48;100531.94;;;35.02;46.42
36798;BME280;22748;8.426;99.512;2023-08-06T09:40:33;100541.72;;;35.03;46.18
36798;BME280;22748;8.426;99.512;2023-08-06T09:43:08;100541.72;;;35.03;46.20
36798;BME280;22748;8.426;99.512;2023-08-06T09:45:40;100540.66;;;35.05;46.45
36798;BME280;22748;8.426;99.512;2023-08-06T09:48:11;100536.84;;;35.06;46.16
36798;BME280;22748;8.426;99.512;2023-08-06T09:50:42;100539.28;;;35.02;46.48
36798;BME280;22748;8.426;99.512;2023-08-06T09:53:16;100544.44;;;35.03;46.40
36798;BME280;22748;8.426;99.512;2023-08-06T09:55:47;100546.34;;;35.03;46.10
36798;BME280;22748;8.426;99.512;2023-08-06T09:58:22;100551.19;;;35.01;46.59
36798;BME280;22748;8.426;99.512;2023-08-06T10:00:55;100545.47;;;34.97;46.75
36798;BME280;22748;8.426;99.512;2023-08-06T10:03:28;100554.41;;;34.98;46.61
36798;BME280;22748;8.426;99.512;2023-08-06T10:05:59;100563.94;;;35.00;46.72
36798;BME280;22748;8.426;99.512;2023-08-06T10:08:33;100568.28;;;35.01;46.73
36798;BME280;22748;8.426;99.512;2023-08-06T10:11:04;100571.00;;;35.01;46.91
36798;BME280;22748;8.426;99.512;2023-08-06T10:13:38;100576.44;;;35.01;47.16
36798;BME280;22748;8.426;99.512;2023-08-06T10:16:11;100581.84;;;35.01;46.67
36798;BME280;22748;8.426;99.512;2023-08-06T10:18:43;100569.69;;;35.04;46.71
36798;BME280;22748;8.426;99.512;2023-08-06T10:21:16;100578.66;;;35.05;46.40
36798;BME280;22748;8.426;99.512;2023-08-06T10:23:54;100583.50;;;35.02;46.42
36798;BME280;22748;8.426;99.512;2023-08-06T10:26:27;100586.19;;;34.97;46.76
36798;BME280;22748;8.426;99.512;2023-08-06T10:29:00;100584.50;;;34.96;46.74
36798;BME280;22748;8.426;99.512;2023-08-06T10:32:02;100588.00;;;34.92;46.68
36798;BME280;22748;8.426;99.512;2023-08-06T10:34:54;100595.31;;;34.91;46.80
36798;BME280;22748;8.426;99.512;2023-08-06T10:37:35;100604.03;;;34.93;46.65
36798;BME280;22748;8.426;99.512;2023-08-06T10:40:08;100609.94;;;34.90;46.78
36798;BME280;22748;8.426;99.512;2023-08-06T10:42:41;100619.75;;;34.91;46.75
36798;BME280;22748;8.426;99.512;2023-08-06T10:45:19;100621.59;;;34.91;46.92
36798;BME280;22748;8.426;99.512;2023-08-06T10:47:51;100631.34;;;34.87;47.11
36798;BME280;22748;8.426;99.512;2023-08-06T10:50:22;100640.28;;;34.87;47.11
36798;BME280;22748;8.426;99.512;2023-08-06T10:52:53;100650.63;;;34.90;47.05
36798;BME280;22748;8.426;99.512;2023-08-06T10:55:23;100642.50;;;34.90;47.06
36798;BME280;22748;8.426;99.512;2023-08-06T10:57:55;100643.59;;;34.89;46.80
36798;BME280;22748;8.426;99.512;2023-08-06T11:00:28;100650.06;;;34.88;47.08
36798;BME280;22748;8.426;99.512;2023-08-06T11:02:59;100649.00;;;34.89;47.06
36798;BME280;22748;8.426;99.512;2023-08-06T11:05:30;100656.06;;;34.90;47.19
36798;BME280;22748;8.426;99.512;2023-08-06T11:08:01;100654.44;;;34.89;47.25
36798;BME280;22748;8.426;99.512;2023-08-06T11:10:33;100659.88;;;34.89;47.29
36798;BME280;22748;8.426;99.512;2023-08-06T11:13:04;100641.63;;;34.85;47.51
36798;BME280;22748;8.426;99.512;2023-08-06T11:15:38;100647.53;;;34.81;47.60
36798;BME280;22748;8.426;99.512;2023-08-06T11:18:09;100665.13;;;34.79;47.23
36798;BME280;22748;8.426;99.512;2023-08-06T11:20:40;100671.63;;;34.78;47.51
36798;BME280;22748;8.426;99.512;2023-08-06T11:23:11;100683.53;;;34.77;47.62
36798;BME280;22748;8.426;99.512;2023-08-06T11:25:45;100685.69;;;34.75;47.67
36798;BME280;22748;8.426;99.512;2023-08-06T11:28:16;100671.53;;;34.73;47.72
36798;BME280;22748;8.426;99.512;2023-08-06T11:30:51;100674.25;;;34.73;47.64
36798;BME280;22748;8.426;99.512;2023-08-06T11:33:24;100681.81;;;34.71;47.93
36798;BME280;22748;8.426;99.512;2023-08-06T11:35:56;100685.38;;;34.71;48.03
36798;BME280;22748;8.426;99.512;2023-08-06T11:38:28;100692.66;;;34.71;48.19
36798;BME280;22748;8.426;99.512;2023-08-06T11:41:01;100689.97;;;34.71;48.12
36798;BME280;22748;8.426;99.512;2023-08-06T11:43:32;100691.84;;;34.70;48.23
36798;BME280;22748;8.426;99.512;2023-08-06T11:46:05;100694.00;;;34.68;48.31
36798;BME280;22748;8.426;99.512;2023-08-06T11:48:51;100690.47;;;34.68;48.73
36798;BME280;22748;8.426;99.512;2023-08-06T11:51:23;100689.66;;;34.67;48.34
36798;BME280;22748;8.426;99.512;2023-08-06T11:53:56;100690.47;;;34.68;48.60
36798;BME280;22748;8.426;99.512;2023-08-06T11:56:30;100691.28;;;34.68;48.78
36798;BME280;22748;8.426;99.512;2023-08-06T11:59:03;100700.50;;;34.67;48.65
36798;BME280;22748;8.426;99.512;2023-08-06T12:01:36;100707.78;;;34.67;48.47
36798;BME280;22748;8.426;99.512;2023-08-06T12:04:08;100708.88;;;34.66;48.65
36798;BME280;22748;8.426;99.512;2023-08-06T12:06:43;100710.41;;;34.61;48.76
36798;BME280;22748;8.426;99.512;2023-08-06T12:09:14;100709.59;;;34.61;48.58
36798;BME280;22748;8.426;99.512;2023-08-06T12:11:44;100711.16;;;34.57;48.73
36798;BME280;22748;8.426;99.512;2023-08-06T12:14:14;100714.09;;;34.55;48.72
36798;BME280;22748;8.426;99.512;2023-08-06T12:16:46;100718.34;;;34.51;49.18
36798;BME280;22748;8.426;99.512;2023-08-06T12:19:17;100710.22;;;34.51;49.30
36798;BME280;22748;8.426;99.512;2023-08-06T12:21:49;100710.81;;;34.53;49.33
36798;BME280;22748;8.426;99.512;2023-08-06T12:24:19;100699.97;;;34.53;49.56
36798;BME280;22748;8.426;99.512;2023-08-06T12:26:49;100705.66;;;34.52;49.56
36798;BME280;22748;8.426;99.512;2023-08-06T12:29:20;100698.56;;;34.51;49.40
36798;BME280;22748;8.426;99.512;2023-08-06T12:31:53;100705.88;;;34.50;49.45
36798;BME280;22748;8.426;99.512;2023-08-06T12:34:24;100720.03;;;34.52;49.44
36798;BME280;22748;8.426;99.512;2023-08-06T12:36:59;100717.19;;;34.47;49.47
36798;BME280;22748;8.426;99.512;2023-08-06T12:39:34;100726.41;;;34.46;49.27
36798;BME280;22748;8.426;99.512;2023-08-06T12:42:07;100724.78;;;34.45;49.23
36798;BME280;22748;8.426;99.512;2023-08-06T12:44:38;100725.84;;;34.44;49.06
36798;BME280;22748;8.426;99.512;2023-08-06T12:47:11;100725.25;;;34.42;49.10
36798;BME280;22748;8.426;99.512;2023-08-06T12:49:41;100725.25;;;34.42;48.79
36798;BME280;22748;8.426;99.512;2023-08-06T12:52:11;100734.47;;;34.41;48.82
36798;BME280;22748;8.426;99.512;2023-08-06T12:54:47;100731.50;;;34.42;48.85
36798;BME280;22748;8.426;99.512;2023-08-06T12:57:18;100740.72;;;34.41;48.88
36798;BME280;22748;8.426;99.512;2023-08-06T12:59:49;100739.06;;;34.40;48.87
36798;BME280;22748;8.426;99.512;2023-08-06T13:02:21;100751.78;;;34.40;48.83
36798;BME280;22748;8.426;99.512;2023-08-06T13:04:51;100750.41;;;34.37;49.01
36798;BME280;22748;8.426;99.512;2023-08-06T13:07:21;100743.34;;;34.36;49.04
36798;BME280;22748;8.426;99.512;2023-08-06T13:09:54;100746.59;;;34.38;49.09
36798;BME280;22748;8.426;99.512;2023-08-06T13:12:27;100751.47;;;34.36;49.04
36798;BME280;22748;8.426;99.512;2023-08-06T13:15:06;100746.28;;;34.35;49.01
36798;BME280;22748;8.426;99.512;2023-08-06T13:17:39;100749.25;;;34.33;48.93